createdAt,value
2018-05-06T00:02:14.626Z,11.20
2018-05-06T00:04:42.247Z,10.37
2018-05-06T00:07:09.818Z,10.27
2018-05-06T00:09:37.884Z,11.37
2018-05-06T00:12:05.568Z,9.90
2018-05-06T00:14:33.154Z,9.87
2018-05-06T00:17:01.065Z,10.30
2018-05-06T00:19:28.714Z,9.60
2018-05-06T00:21:56.480Z,11.70
2018-05-06T00:24:24.785Z,9.30
2018-05-06T00:26:52.416Z,10.33
2018-05-06T00:29:20.000Z,10.93
2018-05-06T00:31:47.573Z,9.20
2018-05-06T00:34:15.435Z,10.53
2018-05-06T00:36:43.123Z,10.23
2018-05-06T00:39:10.933Z,11.20
2018-05-06T00:41:38.607Z,10.77
2018-05-06T00:44:06.187Z,9.83
2018-05-06T00:46:33.774Z,10.47
2018-05-06T00:49:01.786Z,11.63
2018-05-06T00:51:29.471Z,10.10
2018-05-06T00:53:57.316Z,11.03
2018-05-06T00:56:25.082Z,12.20
2018-05-06T00:58:52.853Z,10.20
2018-05-06T01:01:20.434Z,12.00
2018-05-06T01:03:48.047Z,10.47
2018-05-06T01:06:15.676Z,9.47
2018-05-06T01:08:43.303Z,11.70
2018-05-06T01:11:11.138Z,9.80
2018-05-06T01:13:38.928Z,9.63
2018-05-06T01:16:06.529Z,10.50
2018-05-06T01:18:34.617Z,9.90
2018-05-06T01:21:02.613Z,10.53
2018-05-06T01:23:30.387Z,10.27
2018-05-06T01:25:58.000Z,12.80
2018-05-06T01:28:25.604Z,10.70
2018-05-06T01:30:53.286Z,11.00
2018-05-06T01:33:20.883Z,11.80
2018-05-06T01:35:48.492Z,11.40
2018-05-06T01:38:16.257Z,11.77
2018-05-06T01:40:44.326Z,10.63
2018-05-06T01:43:12.213Z,11.10
2018-05-06T01:45:39.921Z,11.93
2018-05-06T01:48:07.638Z,11.27
2018-05-06T01:50:35.403Z,10.37
2018-05-06T01:53:03.068Z,11.27
2018-05-06T01:55:30.920Z,10.47
2018-05-06T01:57:58.598Z,11.67
2018-05-06T02:00:26.176Z,13.20
2018-05-06T02:02:53.783Z,10.70
2018-05-06T02:05:21.377Z,11.60
2018-05-06T02:07:49.043Z,11.37
2018-05-06T02:10:16.672Z,12.70
2018-05-06T02:12:44.364Z,11.03
2018-05-06T02:15:11.956Z,11.40
2018-05-06T02:17:39.575Z,12.73
2018-05-06T02:20:07.151Z,12.30
2018-05-06T02:22:35.014Z,52.27
2018-05-06T02:25:02.644Z,93.60
2018-05-06T02:27:30.229Z,90.90
2018-05-06T02:29:57.995Z,80.93
2018-05-06T02:32:25.647Z,85.20
2018-05-06T02:34:53.235Z,82.43
2018-05-06T02:37:20.986Z,71.33
2018-05-06T02:39:48.618Z,33.10
2018-05-06T02:42:16.205Z,26.13
2018-05-06T02:44:43.783Z,19.60
2018-05-06T02:47:11.415Z,36.33
2018-05-06T02:49:39.079Z,21.53
2018-05-06T02:52:06.731Z,24.03
2018-05-06T02:54:34.342Z,24.20
2018-05-06T02:57:02.066Z,19.77
2018-05-06T02:59:29.802Z,24.30
2018-05-06T03:01:57.597Z,53.67
2018-05-06T03:04:25.187Z,83.20
2018-05-06T03:06:52.774Z,91.63
2018-05-06T03:09:20.395Z,124.00
2018-05-06T03:11:47.988Z,90.67
2018-05-06T03:14:15.627Z,92.03
2018-05-06T03:16:43.362Z,89.77
2018-05-06T03:19:11.248Z,84.90
2018-05-06T03:21:38.840Z,82.50
2018-05-06T03:24:06.568Z,88.00
2018-05-06T03:26:34.212Z,75.70
2018-05-06T03:29:01.888Z,94.03
2018-05-06T03:31:29.498Z,36.70
2018-05-06T03:33:57.075Z,26.07
2018-05-06T03:36:24.881Z,24.03
2018-05-06T03:38:52.541Z,15.40
2018-05-06T03:41:20.131Z,13.53
2018-05-06T03:43:47.768Z,13.47
2018-05-06T03:46:15.379Z,13.27
2018-05-06T03:48:42.956Z,13.97
2018-05-06T03:51:10.641Z,11.73
2018-05-06T03:53:38.272Z,11.80
2018-05-06T03:59:28.689Z,11.37
2018-05-06T04:05:03.966Z,11.43
2018-05-06T04:07:31.642Z,13.17
2018-05-06T04:09:59.484Z,12.23
2018-05-06T04:12:27.107Z,9.93
2018-05-06T04:14:54.690Z,10.23
2018-05-06T04:17:22.270Z,9.63
2018-05-06T04:19:49.960Z,10.90
2018-05-06T04:22:17.547Z,10.90
2018-05-06T04:24:45.129Z,10.83
2018-05-06T04:27:12.922Z,9.73
2018-05-06T04:29:40.598Z,9.33
2018-05-06T04:32:08.183Z,7.63
2018-05-06T04:34:35.924Z,10.70
2018-05-06T04:37:03.585Z,10.40
2018-05-06T04:39:31.238Z,11.10
2018-05-06T04:41:58.897Z,9.50
2018-05-06T04:44:26.480Z,10.23
2018-05-06T04:46:54.249Z,10.00
2018-05-06T04:49:22.096Z,8.73
2018-05-06T04:51:49.760Z,8.23
2018-05-06T04:54:17.345Z,8.83
2018-05-06T04:56:45.099Z,8.80
2018-05-06T04:59:12.683Z,8.83
2018-05-06T05:01:40.262Z,8.90
2018-05-06T05:04:08.068Z,8.63
2018-05-06T05:06:35.651Z,8.53
2018-05-06T05:09:03.403Z,7.40
2018-05-06T05:11:31.112Z,8.17
2018-05-06T05:13:58.696Z,9.73
2018-05-06T05:16:26.400Z,8.17
2018-05-06T05:18:54.024Z,9.33
2018-05-06T05:21:21.708Z,9.87
2018-05-06T05:23:49.295Z,8.47
2018-05-06T05:26:16.905Z,7.90
2018-05-06T05:28:44.487Z,7.10
2018-05-06T05:31:12.060Z,6.63
2018-05-06T05:33:39.718Z,5.90
2018-05-06T05:36:07.480Z,5.97
2018-05-06T05:38:35.155Z,5.60
2018-05-06T05:41:03.007Z,5.80
2018-05-06T05:43:30.584Z,6.40
2018-05-06T05:45:58.159Z,5.37
2018-05-06T05:48:25.791Z,5.27
2018-05-06T05:50:53.370Z,5.63
2018-05-06T05:53:20.942Z,5.53
2018-05-06T05:55:48.768Z,6.57
2018-05-06T05:58:16.353Z,6.07
2018-05-06T06:00:44.111Z,7.63
2018-05-06T06:03:11.710Z,5.60
2018-05-06T06:05:39.284Z,5.83
2018-05-06T06:08:07.073Z,6.40
2018-05-06T06:10:34.719Z,5.53
2018-05-06T06:13:02.299Z,5.73
2018-05-06T06:15:30.218Z,6.07
2018-05-06T06:17:57.793Z,5.07
2018-05-06T06:20:25.408Z,5.73
2018-05-06T06:22:53.240Z,4.87
2018-05-06T06:25:20.937Z,4.50
2018-05-06T06:27:48.579Z,5.10
2018-05-06T06:30:16.251Z,5.40
2018-05-06T06:32:43.907Z,4.47
2018-05-06T06:35:11.496Z,4.77
2018-05-06T06:37:39.071Z,3.90
2018-05-06T06:40:06.901Z,4.40
2018-05-06T06:42:34.574Z,5.53
2018-05-06T06:45:02.229Z,5.43
2018-05-06T06:47:29.837Z,6.47
2018-05-06T06:49:57.420Z,4.70
2018-05-06T06:52:25.008Z,5.40
2018-05-06T06:54:52.666Z,6.80
2018-05-06T06:57:20.342Z,5.57
2018-05-06T06:59:47.910Z,6.57
2018-05-06T07:02:15.665Z,7.13
2018-05-06T07:04:43.314Z,5.93
2018-05-06T07:07:10.990Z,6.60
2018-05-06T07:09:38.612Z,6.70
2018-05-06T07:12:06.261Z,6.23
2018-05-06T07:14:34.183Z,5.13
2018-05-06T07:17:01.843Z,5.70
2018-05-06T07:19:29.495Z,5.60
2018-05-06T07:21:57.073Z,7.20
2018-05-06T07:24:24.831Z,5.67
2018-05-06T07:26:52.664Z,5.40
2018-05-06T07:29:20.247Z,4.77
2018-05-06T07:31:48.008Z,6.13
2018-05-06T07:34:15.686Z,6.10
2018-05-06T07:36:43.345Z,5.10
2018-05-06T07:39:10.987Z,4.93
2018-05-06T07:41:38.639Z,4.70
2018-05-06T07:44:06.541Z,5.13
2018-05-06T07:46:34.184Z,4.60
2018-05-06T07:49:01.856Z,5.10
2018-05-06T07:51:29.451Z,5.47
2018-05-06T07:53:57.176Z,5.93
2018-05-06T07:56:24.834Z,4.80
2018-05-06T07:58:52.539Z,5.83
2018-05-06T08:01:20.177Z,4.70
2018-05-06T08:03:47.835Z,5.43
2018-05-06T08:06:15.410Z,5.40
2018-05-06T08:08:43.037Z,9.87
2018-05-06T08:11:10.683Z,5.53
2018-05-06T08:13:38.514Z,5.13
2018-05-06T08:16:06.145Z,6.30
2018-05-06T08:18:33.795Z,4.30
2018-05-06T08:21:01.642Z,4.30
2018-05-06T08:23:29.320Z,4.53
2018-05-06T08:25:56.923Z,3.57
2018-05-06T08:28:24.562Z,3.60
2018-05-06T08:30:52.178Z,4.60
2018-05-06T08:33:19.884Z,5.50
2018-05-06T08:35:47.532Z,6.17
2018-05-06T08:38:15.603Z,4.10
2018-05-06T08:40:43.506Z,4.40
2018-05-06T08:43:12.166Z,3.63
2018-05-06T08:45:40.056Z,3.67
2018-05-06T08:48:08.023Z,4.50
2018-05-06T08:50:36.114Z,4.00
2018-05-06T08:53:04.367Z,4.17
2018-05-06T08:55:32.429Z,3.70
2018-05-06T08:58:00.308Z,4.63
2018-05-06T09:00:28.379Z,5.93
2018-05-06T09:02:56.380Z,4.97
2018-05-06T09:05:24.247Z,3.97
2018-05-06T09:07:52.608Z,3.70
2018-05-06T09:10:20.463Z,3.60
2018-05-06T09:12:48.450Z,4.07
2018-05-06T09:15:16.267Z,5.70
2018-05-06T09:17:44.678Z,4.30
2018-05-06T09:20:12.402Z,4.40
2018-05-06T09:22:40.443Z,4.00
2018-05-06T09:25:08.304Z,2.93
2018-05-06T09:27:36.045Z,4.33
2018-05-06T09:30:03.818Z,3.93
2018-05-06T09:32:31.512Z,3.70
2018-05-06T09:34:59.179Z,4.00
2018-05-06T09:37:26.919Z,4.55
2018-05-06T09:39:54.611Z,4.43
2018-05-06T09:42:22.277Z,4.30
2018-05-06T09:44:50.028Z,3.25
2018-05-06T09:47:17.726Z,3.70
2018-05-06T09:49:45.531Z,4.40
2018-05-06T09:52:13.216Z,3.47
2018-05-06T09:54:40.972Z,4.20
2018-05-06T09:57:08.660Z,3.83
2018-05-06T09:59:36.560Z,3.55
2018-05-06T10:02:04.276Z,4.12
2018-05-06T10:04:31.947Z,3.28
2018-05-06T10:06:59.663Z,3.57
2018-05-06T10:09:27.327Z,3.53
2018-05-06T10:11:55.168Z,4.30
2018-05-06T10:14:23.159Z,3.87
2018-05-06T10:16:51.106Z,3.75
2018-05-06T10:19:19.091Z,3.45
2018-05-06T10:21:47.161Z,3.10
2018-05-06T10:24:15.037Z,2.55
2018-05-06T10:26:42.899Z,4.32
2018-05-06T10:29:10.865Z,2.25
2018-05-06T10:31:38.753Z,3.15
2018-05-06T10:34:06.573Z,3.62
2018-05-06T10:36:34.438Z,3.05
2018-05-06T10:39:02.457Z,2.87
2018-05-06T10:41:30.521Z,3.17
2018-05-06T10:43:58.658Z,4.50
2018-05-06T10:46:26.667Z,2.70
2018-05-06T10:48:54.335Z,3.00
2018-05-06T10:51:22.069Z,3.10
2018-05-06T10:53:49.768Z,2.45
2018-05-06T10:56:17.466Z,3.22
2018-05-06T10:58:45.185Z,4.03
2018-05-06T11:01:12.900Z,2.97
2018-05-06T11:03:40.909Z,2.60
2018-05-06T11:06:08.983Z,3.78
2018-05-06T11:08:36.851Z,2.97
2018-05-06T11:11:04.692Z,2.60
2018-05-06T11:13:32.649Z,3.03
2018-05-06T11:16:00.643Z,3.28
2018-05-06T11:18:28.510Z,2.95
2018-05-06T11:20:56.263Z,3.17
2018-05-06T11:23:23.960Z,8.32
2018-05-06T11:25:51.650Z,2.83
2018-05-06T11:28:19.459Z,3.10
2018-05-06T11:30:47.323Z,3.28
2018-05-06T11:33:15.157Z,4.35
2018-05-06T11:35:43.188Z,3.42
2018-05-06T11:38:10.928Z,3.37
2018-05-06T11:40:38.644Z,4.57
2018-05-06T11:43:06.425Z,3.83
2018-05-06T11:45:34.111Z,3.17
2018-05-06T11:48:02.124Z,3.62
2018-05-06T11:50:30.172Z,3.70
2018-05-06T11:52:57.881Z,4.47
2018-05-06T11:55:25.920Z,3.50
2018-05-06T11:57:53.985Z,4.35
2018-05-06T12:00:21.910Z,3.67
2018-05-06T12:02:49.923Z,5.40
2018-05-06T12:05:17.659Z,3.70
2018-05-06T12:07:45.678Z,3.37
2018-05-06T12:10:13.548Z,3.20
2018-05-06T12:12:41.591Z,3.35
2018-05-06T12:15:09.464Z,3.00
2018-05-06T12:17:37.182Z,3.75
2018-05-06T12:20:05.196Z,4.55
2018-05-06T12:22:33.063Z,3.65
2018-05-06T12:25:00.883Z,2.72
2018-05-06T12:27:28.996Z,3.85
2018-05-06T12:29:57.053Z,5.03
2018-05-06T12:32:25.113Z,4.03
2018-05-06T12:34:53.074Z,3.75
2018-05-06T12:37:21.068Z,3.22
2018-05-06T12:39:48.946Z,3.40
2018-05-06T12:42:16.820Z,3.10
2018-05-06T12:44:44.720Z,3.87
2018-05-06T12:47:12.540Z,4.62
2018-05-06T12:49:40.385Z,4.60
2018-05-06T12:52:08.227Z,3.50
2018-05-06T12:54:36.095Z,3.40
2018-05-06T12:57:04.226Z,4.40
2018-05-06T12:59:32.177Z,3.63
2018-05-06T13:02:00.022Z,4.03
2018-05-06T13:04:28.110Z,4.00
2018-05-06T13:06:56.307Z,4.00
2018-05-06T13:09:24.271Z,5.00
2018-05-06T13:11:52.114Z,4.00
2018-05-06T13:14:19.980Z,4.93
2018-05-06T13:16:47.695Z,4.00
2018-05-06T13:19:15.648Z,4.03
2018-05-06T13:21:43.506Z,3.50
2018-05-06T13:24:11.427Z,7.77
2018-05-06T13:26:39.457Z,4.23
2018-05-06T13:29:07.460Z,3.70
2018-05-06T13:31:35.253Z,3.57
2018-05-06T13:34:03.240Z,3.70
2018-05-06T13:36:31.161Z,4.37
2018-05-06T13:38:59.193Z,4.20
2018-05-06T13:41:27.125Z,4.20
2018-05-06T13:43:55.131Z,4.37
2018-05-06T13:46:22.785Z,4.33
2018-05-06T13:48:50.855Z,5.40
2018-05-06T13:51:18.546Z,4.73
2018-05-06T13:53:46.381Z,3.10
2018-05-06T13:56:14.008Z,3.13
2018-05-06T13:58:41.585Z,4.30
2018-05-06T14:01:09.158Z,5.07
2018-05-06T14:03:36.819Z,5.23
2018-05-06T14:06:04.445Z,3.90
2018-05-06T14:08:32.127Z,3.53
2018-05-06T14:10:59.796Z,5.00
2018-05-06T14:13:27.472Z,5.97
2018-05-06T14:15:55.162Z,6.37
2018-05-06T14:18:22.986Z,4.37
2018-05-06T14:20:50.637Z,5.07
2018-05-06T14:23:18.316Z,5.73
2018-05-06T14:25:46.045Z,4.50
2018-05-06T14:28:13.624Z,4.90
2018-05-06T14:30:41.218Z,6.87
2018-05-06T14:33:08.950Z,4.50
2018-05-06T14:35:36.519Z,4.60
2018-05-06T14:38:04.300Z,4.57
2018-05-06T14:40:31.920Z,5.60
2018-05-06T14:42:59.523Z,5.23
2018-05-06T14:45:27.277Z,4.53
2018-05-06T14:48:06.547Z,3.60
2018-05-06T14:50:34.132Z,4.57
2018-05-06T14:53:01.744Z,4.50
2018-05-06T14:55:29.368Z,3.83
2018-05-06T14:57:56.940Z,4.43
2018-05-06T15:00:24.521Z,5.17
2018-05-06T15:02:52.141Z,4.70
2018-05-06T15:05:19.752Z,4.83
2018-05-06T15:07:47.514Z,4.10
2018-05-06T15:10:15.151Z,4.57
2018-05-06T15:12:42.760Z,4.40
2018-05-06T15:15:10.397Z,4.90
2018-05-06T15:17:37.998Z,5.60
2018-05-06T15:20:05.566Z,4.03
2018-05-06T15:22:33.179Z,4.20
2018-05-06T15:25:00.790Z,5.47
2018-05-06T15:27:28.504Z,5.00
2018-05-06T15:29:56.078Z,4.83
2018-05-06T15:32:23.844Z,5.67
2018-05-06T15:34:51.406Z,5.90
2018-05-06T15:37:19.153Z,4.70
2018-05-06T15:39:46.763Z,5.07
2018-05-06T15:42:14.347Z,7.60
2018-05-06T15:44:41.929Z,6.23
2018-05-06T15:47:09.519Z,4.30
2018-05-06T15:49:37.093Z,4.70
2018-05-06T15:52:04.669Z,4.50
2018-05-06T15:54:32.290Z,5.87
2018-05-06T15:56:59.864Z,5.13
2018-05-06T15:59:27.431Z,5.37
2018-05-06T16:02:06.923Z,4.20
2018-05-06T16:04:34.492Z,5.00
2018-05-06T16:07:02.052Z,6.73
2018-05-06T16:09:31.795Z,5.93
2018-05-06T16:12:01.385Z,5.80
2018-05-06T16:14:31.604Z,5.27
2018-05-06T16:17:01.873Z,4.83
2018-05-06T16:19:32.311Z,6.13
2018-05-06T16:22:02.693Z,7.07
2018-05-06T16:24:32.914Z,6.27
2018-05-06T16:27:02.478Z,8.43
2018-05-06T16:29:32.470Z,6.40
2018-05-06T16:32:02.100Z,6.90
2018-05-06T16:34:32.233Z,5.70
2018-05-06T16:37:01.231Z,5.70
2018-05-06T16:39:30.279Z,6.70
2018-05-06T16:41:59.287Z,6.00
2018-05-06T16:44:28.992Z,5.20
2018-05-06T16:46:58.662Z,7.63
2018-05-06T16:49:27.802Z,5.53
2018-05-06T16:51:56.780Z,5.70
2018-05-06T16:54:26.635Z,6.50
2018-05-06T16:56:56.790Z,7.60
2018-05-06T16:59:26.243Z,7.30
2018-05-06T17:01:56.072Z,8.50
2018-05-06T17:04:25.369Z,9.67
2018-05-06T17:06:55.222Z,5.30
2018-05-06T17:09:25.329Z,6.23
2018-05-06T17:11:55.489Z,5.97
2018-05-06T17:14:25.031Z,4.53
2018-05-06T17:16:54.316Z,4.63
2018-05-06T17:19:24.089Z,5.20
2018-05-06T17:21:51.777Z,4.47
2018-05-06T17:24:19.377Z,4.73
2018-05-06T17:26:46.999Z,3.33
2018-05-06T17:29:14.568Z,3.20
2018-05-06T17:31:42.191Z,3.70
2018-05-06T17:34:09.800Z,2.93
2018-05-06T17:36:37.352Z,3.50
2018-05-06T17:39:05.730Z,3.57
2018-05-06T17:41:33.332Z,5.07
2018-05-06T17:44:00.932Z,7.90
2018-05-06T17:46:28.521Z,5.43
2018-05-06T17:48:56.125Z,6.50
2018-05-06T17:51:23.711Z,4.30
2018-05-06T17:53:51.282Z,6.00
2018-05-06T17:56:18.899Z,5.60
2018-05-06T17:58:46.462Z,5.93
2018-05-06T18:01:14.026Z,4.70
2018-05-06T18:03:41.636Z,5.23
2018-05-06T18:06:09.207Z,4.53
2018-05-06T18:08:36.985Z,5.73
2018-05-06T18:11:04.660Z,5.80
2018-05-06T18:13:32.314Z,5.10
2018-05-06T18:15:59.891Z,4.40
2018-05-06T18:18:27.511Z,5.07
2018-05-06T18:20:55.080Z,5.40
2018-05-06T18:23:22.654Z,5.20
2018-05-06T18:25:50.619Z,5.07
2018-05-06T18:28:18.459Z,5.53
2018-05-06T18:30:46.043Z,5.93
2018-05-06T18:33:13.650Z,5.87
2018-05-06T18:35:41.225Z,6.83
2018-05-06T18:38:08.929Z,6.77
2018-05-06T18:40:36.605Z,8.50
2018-05-06T18:43:04.257Z,8.00
2018-05-06T18:45:31.821Z,6.90
2018-05-06T18:47:59.596Z,7.17
2018-05-06T18:50:27.256Z,8.00
2018-05-06T18:52:54.843Z,8.10
2018-05-06T18:55:22.453Z,7.40
2018-05-06T18:57:50.227Z,6.43
2018-05-06T19:00:17.790Z,6.50
2018-05-06T19:02:45.415Z,7.70
2018-05-06T19:05:13.223Z,8.20
2018-05-06T19:07:40.892Z,7.17
2018-05-06T19:10:08.535Z,7.43
2018-05-06T19:12:36.114Z,7.17
2018-05-06T19:15:03.936Z,7.97
2018-05-06T19:17:31.726Z,6.70
2018-05-06T19:19:59.303Z,7.00
2018-05-06T19:22:27.069Z,6.63
2018-05-06T19:24:54.736Z,8.07
2018-05-06T19:27:22.345Z,5.90
2018-05-06T19:29:50.034Z,7.90
2018-05-06T19:32:17.795Z,7.20
2018-05-06T19:34:45.379Z,7.47
2018-05-06T19:37:13.022Z,6.67
2018-05-06T19:39:46.344Z,6.43
2018-05-06T19:42:14.101Z,7.70
2018-05-06T19:44:43.361Z,6.60
2018-05-06T19:47:10.971Z,7.53
2018-05-06T19:49:38.550Z,7.50
2018-05-06T19:52:06.175Z,8.20
2018-05-06T19:54:34.010Z,7.20
2018-05-06T19:57:01.647Z,7.20
2018-05-06T19:59:29.365Z,7.70
2018-05-06T20:01:57.038Z,6.87
2018-05-06T20:04:24.695Z,7.20
2018-05-06T20:06:52.278Z,6.10
2018-05-06T20:09:20.012Z,5.97
2018-05-06T20:11:47.583Z,5.73
2018-05-06T20:14:15.165Z,6.53
2018-05-06T20:16:42.781Z,8.00
2018-05-06T20:19:10.454Z,6.70
2018-05-06T20:21:38.145Z,6.30
2018-05-06T20:24:05.791Z,7.93
2018-05-06T20:26:33.445Z,6.50
2018-05-06T20:29:01.110Z,7.00
2018-05-06T20:31:28.847Z,7.00
2018-05-06T20:33:56.439Z,6.90
2018-05-06T20:36:24.019Z,7.50
2018-05-06T20:38:51.750Z,9.17
2018-05-06T20:41:19.432Z,7.23
2018-05-06T20:43:47.036Z,6.97
2018-05-06T20:46:14.737Z,7.60
2018-05-06T20:48:42.311Z,6.10
2018-05-06T20:51:10.050Z,7.30
2018-05-06T20:53:37.732Z,7.40
2018-05-06T20:56:05.322Z,6.53
2018-05-06T20:58:33.049Z,7.30
2018-05-06T21:01:00.662Z,7.10
2018-05-06T21:03:28.375Z,7.23
2018-05-06T21:05:55.955Z,7.20
2018-05-06T21:08:23.564Z,8.13
2018-05-06T21:10:51.140Z,7.33
2018-05-06T21:13:18.708Z,6.60
2018-05-06T21:15:46.310Z,7.27
2018-05-06T21:18:13.880Z,7.83
2018-05-06T21:20:41.442Z,8.30
2018-05-06T21:23:09.259Z,6.87
2018-05-06T21:25:36.939Z,7.70
2018-05-06T21:28:04.602Z,9.13
2018-05-06T21:30:32.279Z,8.00
2018-05-06T21:32:59.952Z,8.80
2018-05-06T21:35:27.488Z,7.00
2018-05-06T21:37:55.231Z,8.17
2018-05-06T21:40:22.799Z,8.47
2018-05-06T21:42:50.411Z,7.23
2018-05-06T21:45:18.224Z,8.43
2018-05-06T21:47:45.882Z,8.80
2018-05-06T21:50:13.559Z,7.20
2018-05-06T21:52:41.183Z,6.97
2018-05-06T21:55:08.758Z,8.73
2018-05-06T21:57:36.327Z,7.87
2018-05-06T22:00:03.964Z,7.57
2018-05-06T22:02:31.653Z,8.70
2018-05-06T22:04:59.228Z,8.40
2018-05-06T22:07:26.894Z,6.93
2018-05-06T22:09:54.459Z,8.20
2018-05-06T22:12:22.043Z,7.60
2018-05-06T22:14:49.672Z,7.43
2018-05-06T22:17:17.423Z,9.43
2018-05-06T22:19:44.998Z,8.30
2018-05-06T22:22:12.615Z,9.17
2018-05-06T22:24:40.206Z,8.87
2018-05-06T22:27:07.873Z,9.40
2018-05-06T22:29:35.479Z,9.30
2018-05-06T22:32:03.067Z,7.93
2018-05-06T22:34:30.647Z,7.90
2018-05-06T22:36:58.271Z,8.60
2018-05-06T22:39:25.841Z,8.80
2018-05-06T22:41:53.426Z,8.60
2018-05-06T22:44:21.038Z,8.30
2018-05-06T22:46:48.761Z,8.07
2018-05-06T22:49:16.370Z,8.10
2018-05-06T22:51:44.088Z,9.00
2018-05-06T22:54:11.609Z,8.20
2018-05-06T22:56:39.404Z,7.40
2018-05-06T22:59:07.078Z,7.47
2018-05-06T23:01:34.906Z,9.23
2018-05-06T23:04:02.595Z,9.70
2018-05-06T23:06:30.254Z,8.10
2018-05-06T23:08:57.905Z,9.50
2018-05-06T23:11:25.601Z,7.43
2018-05-06T23:13:53.238Z,8.67
2018-05-06T23:16:20.851Z,6.77
2018-05-06T23:18:48.437Z,8.73
2018-05-06T23:21:16.048Z,8.77
2018-05-06T23:23:43.887Z,10.47
2018-05-06T23:26:11.459Z,9.67
2018-05-06T23:28:39.070Z,10.13
2018-05-06T23:31:06.686Z,8.93
2018-05-06T23:33:34.266Z,11.40
2018-05-06T23:36:01.895Z,12.50
2018-05-06T23:38:29.667Z,13.60
2018-05-06T23:40:57.323Z,12.30
2018-05-06T23:43:24.978Z,10.93
2018-05-06T23:45:52.555Z,13.17
2018-05-06T23:48:20.139Z,12.00
2018-05-06T23:50:47.754Z,13.80
2018-05-06T23:53:15.319Z,13.70
2018-05-06T23:55:42.900Z,13.00
2018-05-06T23:58:10.536Z,12.20
